Time;durP1;ratioP1;P1;durP2;ratioP2;P2;SDS_P1;SDS_P2;PMS_P1;PMS_P2;Temp;Humidity;BMP_temperature;BMP_pressure;BME280_temperature;BME280_humidity;BME280_pressure;Samples;Min_cycle;Max_cycle;Signal;HPM_P1;HPM_P2
2021/10/25 00:02:03;;;;;;;;;39.00;30.50;;;;;11.41;69.16;101627.03;5059177;28;45496;-56
2021/10/25 00:04:29;;;;;;;;;38.25;30.50;;;;;11.41;69.25;101630.50;5057155;28;45972;-56
2021/10/25 00:06:54;;;;;;;;;36.00;31.00;;;;;11.39;69.36;101626.19;5059183;28;45172;-56
2021/10/25 00:09:20;;;;;;;;;32.50;29.25;;;;;11.38;69.47;101621.88;5047292;28;45181;-56
2021/10/25 00:11:45;;;;;;;;;34.50;29.50;;;;;11.36;69.29;101623.66;5058498;28;46254;-56
2021/10/25 00:14:11;;;;;;;;;30.00;26.25;;;;;11.33;69.35;101613.28;5058545;28;45263;-55
2021/10/25 00:16:37;;;;;;;;;34.25;29.50;;;;;11.31;69.61;101615.91;5059178;28;45394;-55
2021/10/25 00:19:04;;;;;;;;;35.25;31.50;;;;;11.30;69.39;101623.75;5061731;28;45414;-56
2021/10/25 00:21:29;;;;;;;;;30.00;25.75;;;;;11.30;69.44;101616.81;5062098;28;46141;-56
2021/10/25 00:23:55;;;;;;;;;35.50;29.50;;;;;11.27;69.75;101620.31;5051748;28;45307;-56
2021/10/25 00:26:20;;;;;;;;;28.25;26.25;;;;;11.24;69.67;101622.97;5060670;28;45301;-56
2021/10/25 00:28:45;;;;;;;;;31.50;26.00;;;;;11.23;69.76;101615.19;5061885;28;45466;-56
2021/10/25 00:31:11;;;;;;;;;29.75;29.25;;;;;11.23;70.06;101623.00;5062978;28;46086;-56
2021/10/25 00:33:36;;;;;;;;;36.50;29.25;;;;;11.21;69.88;101620.44;5062739;28;45364;-56
2021/10/25 00:36:01;;;;;;;;;31.50;31.25;;;;;11.21;69.95;101614.34;5056479;28;45211;-56
2021/10/25 00:38:27;;;;;;;;;31.00;29.00;;;;;11.19;69.60;101609.16;5056507;28;45220;-57
2021/10/25 00:40:53;;;;;;;;;34.00;30.25;;;;;11.17;69.82;101602.25;5061648;28;45246;-56
2021/10/25 00:43:18;;;;;;;;;34.75;28.50;;;;;11.13;70.18;101601.47;5060731;28;45368;-56
2021/10/25 00:45:44;;;;;;;;;34.00;27.25;;;;;11.09;70.05;101601.53;5059840;28;45548;-57
2021/10/25 00:48:10;;;;;;;;;28.25;26.25;;;;;11.06;69.69;101593.78;5061068;28;45445;-56
2021/10/25 00:50:36;;;;;;;;;31.50;26.75;;;;;11.04;69.93;101595.56;5061568;28;45998;-56
2021/10/25 00:53:02;;;;;;;;;34.00;28.00;;;;;11.01;70.16;101601.63;5059895;28;45455;-56
2021/10/25 00:55:28;;;;;;;;;38.00;30.50;;;;;11.00;70.24;101599.06;5062026;28;45322;-56
2021/10/25 00:57:53;;;;;;;;;31.50;26.50;;;;;11.02;70.68;101594.72;5059581;28;45350;-55
2021/10/25 01:00:19;;;;;;;;;34.50;29.00;;;;;11.05;70.35;101592.94;5058981;28;45367;-55
2021/10/25 01:02:44;;;;;;;;;34.25;31.25;;;;;11.11;70.35;101604.97;5056827;28;45458;-55
2021/10/25 01:05:10;;;;;;;;;29.75;27.75;;;;;11.14;70.57;101607.53;5058061;28;45359;-55
2021/10/25 01:07:38;;;;;;;;;37.50;29.50;;;;;11.19;70.23;101603.94;5058982;28;45446;-55
2021/10/25 01:10:04;;;;;;;;;28.25;24.75;;;;;11.24;69.72;101607.38;5058933;28;45687;-55
2021/10/25 01:12:31;;;;;;;;;21.75;19.00;;;;;11.27;69.91;101612.53;5045543;28;46069;-55
2021/10/25 01:14:56;;;;;;;;;26.25;25.00;;;;;11.33;69.62;101613.28;5060477;28;45429;-55
2021/10/25 01:17:22;;;;;;;;;35.75;29.00;;;;;11.35;69.54;101608.91;5061071;28;45623;-55
2021/10/25 01:19:56;;;;;;;;;31.50;27.00;;;;;11.35;69.30;101609.78;5061015;28;46173;-55
2021/10/25 01:22:22;;;;;;;;;28.25;22.00;;;;;11.32;69.34;101612.44;5059287;28;45920;-55
2021/10/25 01:24:50;;;;;;;;;32.75;30.00;;;;;11.35;69.54;101611.53;5052672;28;45386;-55
2021/10/25 01:27:16;;;;;;;;;28.25;23.25;;;;;11.38;69.27;101614.06;5060849;28;45454;-55
2021/10/25 01:29:41;;;;;;;;;31.50;25.50;;;;;11.42;69.17;101615.75;5061004;28;45366;-55
2021/10/25 01:32:07;;;;;;;;;36.00;27.25;;;;;11.43;69.11;101613.13;5060675;28;45420;-55
2021/10/25 01:34:32;;;;;;;;;28.00;24.25;;;;;11.47;68.80;101621.75;5061022;28;45209;-56
2021/10/25 01:36:57;;;;;;;;;30.25;26.50;;;;;11.48;68.92;101621.72;5049209;28;45526;-55
2021/10/25 01:39:23;;;;;;;;;29.50;24.25;;;;;11.51;68.50;101618.19;5060923;28;45927;-54
2021/10/25 01:41:48;;;;;;;;;35.25;28.25;;;;;11.50;68.48;101617.34;5061864;28;45276;-55
2021/10/25 01:44:14;;;;;;;;;34.75;25.00;;;;;11.48;68.52;101613.03;5061124;28;45331;-55
2021/10/25 01:46:42;;;;;;;;;32.00;24.00;;;;;11.51;68.83;101600.81;5060358;28;45352;-55
2021/10/25 01:49:08;;;;;;;;;34.00;25.75;;;;;11.58;68.64;101617.19;5060549;28;45319;-55
2021/10/25 01:51:33;;;;;;;;;29.75;20.25;;;;;11.61;68.53;101611.91;5060470;28;45311;-55
2021/10/25 01:53:59;;;;;;;;;27.50;24.75;;;;;11.65;68.48;101605.78;5060882;28;45501;-56
2021/10/25 01:56:25;;;;;;;;;30.00;24.75;;;;;11.69;68.38;101607.44;5060596;28;45486;-55
2021/10/25 01:58:51;;;;;;;;;27.25;25.50;;;;;11.72;68.16;101602.19;5059198;28;46121;-56
2021/10/25 02:01:17;;;;;;;;;26.25;25.00;;;;;11.75;67.92;101604.72;5058727;28;45326;-55
2021/10/25 02:03:42;;;;;;;;;27.25;25.75;;;;;11.80;67.95;101600.31;5059229;28;45328;-55
2021/10/25 02:06:07;;;;;;;;;30.00;26.25;;;;;11.85;67.71;101598.50;5060518;28;45267;-56
2021/10/25 02:08:33;;;;;;;;;27.75;24.25;;;;;11.88;67.85;101600.19;5060446;28;46048;-56
2021/10/25 02:10:59;;;;;;;;;29.75;24.00;;;;;11.90;67.42;101592.34;5060326;28;45154;-56
2021/10/25 02:13:24;;;;;;;;;27.50;23.75;;;;;11.93;67.25;101592.28;5059000;28;45231;-56
2021/10/25 02:15:49;;;;;;;;;34.50;28.25;;;;;11.95;67.24;101585.28;5053137;28;45415;-56
2021/10/25 02:18:15;;;;;;;;;21.75;20.75;;;;;11.99;67.01;101584.34;5060200;28;45200;-56
2021/10/25 02:20:41;;;;;;;;;29.50;24.75;;;;;12.02;67.00;101592.13;5060911;28;45144;-56
2021/10/25 02:23:07;;;;;;;;;36.75;28.50;;;;;12.03;66.61;101588.63;5057757;28;45577;-55
2021/10/25 02:25:34;;;;;;;;;29.50;24.75;;;;;12.00;66.54;101583.44;5055377;28;45295;-54
2021/10/25 02:27:59;;;;;;;;;35.75;28.50;;;;;11.98;66.58;101587.84;5060109;28;46232;-55
2021/10/25 02:30:25;;;;;;;;;29.25;24.25;;;;;11.96;66.52;101581.78;5059693;28;45434;-54
2021/10/25 02:32:50;;;;;;;;;32.25;26.00;;;;;11.98;66.42;101578.28;5060368;28;45431;-55
2021/10/25 02:35:16;;;;;;;;;30.50;23.00;;;;;12.01;66.45;101590.38;5059766;28;45239;-55
2021/10/25 02:37:41;;;;;;;;;29.50;24.00;;;;;11.98;66.29;101585.22;5049767;28;45443;-56
2021/10/25 02:40:07;;;;;;;;;24.75;21.25;;;;;12.01;66.34;101586.03;5059167;28;45164;-56
2021/10/25 02:42:33;;;;;;;;;28.75;25.00;;;;;12.05;66.32;101585.09;5059282;28;45292;-56
2021/10/25 02:44:58;;;;;;;;;26.50;22.75;;;;;12.08;66.29;101576.34;5059262;28;45778;-56
2021/10/25 02:47:23;;;;;;;;;28.50;23.00;;;;;12.10;66.07;101577.19;5058538;28;45868;-57
2021/10/25 02:49:49;;;;;;;;;27.50;22.50;;;;;12.13;66.20;101569.28;5059346;28;45279;-56
2021/10/25 02:52:14;;;;;;;;;30.00;24.00;;;;;12.12;66.06;101564.97;5058232;28;45643;-56
2021/10/25 02:54:39;;;;;;;;;24.00;22.75;;;;;12.15;65.98;101560.56;5059331;28;45524;-56
2021/10/25 02:57:05;;;;;;;;;29.50;25.00;;;;;12.18;65.91;101554.41;5059941;28;45362;-55
2021/10/25 02:59:30;;;;;;;;;30.50;26.75;;;;;12.18;65.96;101547.44;5057748;28;45328;-55
2021/10/25 03:01:56;;;;;;;;;24.75;24.50;;;;;12.20;65.92;101544.81;5055693;28;45485;-56
2021/10/25 03:04:21;;;;;;;;;30.50;24.75;;;;;12.20;65.86;101552.63;5055337;28;45353;-56
2021/10/25 03:06:47;;;;;;;;;26.00;22.00;;;;;12.22;66.25;101552.63;5057028;28;46037;-57
2021/10/25 03:09:12;;;;;;;;;28.25;25.75;;;;;12.24;65.80;101545.63;5057135;28;45484;-57
2021/10/25 03:11:38;;;;;;;;;27.00;25.25;;;;;12.27;65.71;101548.16;5057778;28;45504;-57
2021/10/25 03:14:04;;;;;;;;;29.00;25.75;;;;;12.28;65.88;101547.28;5058140;28;45736;-57
2021/10/25 03:16:29;;;;;;;;;24.75;24.00;;;;;12.29;65.50;101552.44;5053174;28;46225;-58
2021/10/25 03:18:55;;;;;;;;;29.00;21.75;;;;;12.26;65.70;101542.09;5056699;28;45375;-58
2021/10/25 03:21:22;;;;;;;;;24.50;22.00;;;;;12.28;65.98;101544.66;5059141;28;45427;-57
2021/10/25 03:23:48;;;;;;;;;24.00;22.00;;;;;12.28;65.98;101553.34;5048611;28;45470;-59
2021/10/25 03:26:14;;;;;;;;;25.00;21.75;;;;;12.27;66.75;101550.78;5058756;28;45298;-58
2021/10/25 03:28:40;;;;;;;;;25.25;24.50;;;;;12.25;67.30;101557.78;5059148;28;45315;-58
2021/10/25 03:31:07;;;;;;;;;25.50;20.50;;;;;12.23;67.73;101551.75;5059154;28;45482;-58
2021/10/25 03:33:33;;;;;;;;;29.50;26.00;;;;;12.22;67.75;101553.47;5059064;28;45501;-57
2021/10/25 03:36:01;;;;;;;;;23.50;23.00;;;;;12.23;68.26;101546.53;5053828;28;47329;-56
2021/10/25 03:38:27;;;;;;;;;22.75;22.00;;;;;12.24;68.28;101553.44;5052591;28;45710;-56
2021/10/25 03:40:54;;;;;;;;;22.25;20.25;;;;;12.24;69.03;101545.63;5059403;28;45296;-56
2021/10/25 03:43:21;;;;;;;;;25.75;22.00;;;;;12.24;69.33;101548.25;5058872;28;45177;-57
2021/10/25 03:45:53;;;;;;;;;29.00;22.75;;;;;12.25;69.00;101544.75;5058649;28;46074;-56
2021/10/25 03:48:26;;;;;;;;;29.75;19.25;;;;;12.25;68.82;101548.19;5058801;28;45297;-56
2021/10/25 03:50:52;;;;;;;;;24.25;18.25;;;;;12.28;69.35;101544.66;5059040;28;45442;-56
2021/10/25 04:28:07;;;;;;;;;20.25;19.25;;;;;12.12;73.81;101554.56;5062077;28;45361;-57
2021/10/25 04:30:34;;;;;;;;;23.50;16.50;;;;;12.09;74.35;101544.19;5060188;28;45864;-57
2021/10/25 04:33:00;;;;;;;;;21.00;18.25;;;;;12.10;74.57;101545.91;5062023;28;45366;-56
2021/10/25 04:35:26;;;;;;;;;19.75;18.00;;;;;12.07;75.02;101552.06;5060650;28;45272;-56
2021/10/25 04:37:52;;;;;;;;;19.25;18.25;;;;;12.02;75.36;101535.66;5052322;28;45369;-55
2021/10/25 04:40:18;;;;;;;;;25.75;19.75;;;;;12.04;75.70;101538.22;5061584;28;45270;-57
2021/10/25 04:42:43;;;;;;;;;22.75;15.75;;;;;12.05;75.54;101533.00;5061810;28;45439;-56
2021/10/25 04:45:09;;;;;;;;;21.25;18.00;;;;;12.02;76.13;101530.44;5061269;28;45359;-57
2021/10/25 04:47:35;;;;;;;;;22.25;19.00;;;;;12.05;76.26;101526.91;5061518;28;45787;-56
2021/10/25 04:50:01;;;;;;;;;20.00;14.75;;;;;12.07;76.37;101530.34;5061058;28;45871;-56
2021/10/25 04:52:29;;;;;;;;;19.25;17.25;;;;;12.08;76.77;101527.72;5061605;28;45169;-55
2021/10/25 04:54:54;;;;;;;;;23.25;20.25;;;;;12.03;76.80;101529.56;5061135;28;45295;-57
2021/10/25 04:57:20;;;;;;;;;22.75;17.50;;;;;12.01;77.19;101528.72;5060708;28;45371;-56
2021/10/25 04:59:45;;;;;;;;;24.25;20.25;;;;;12.02;77.26;101529.59;5060013;28;45356;-56
2021/10/25 05:02:11;;;;;;;;;24.00;19.25;;;;;12.00;77.11;101527.00;5057550;28;45584;-56
2021/10/25 05:04:36;;;;;;;;;22.50;19.50;;;;;12.03;77.66;101533.91;5058356;28;45643;-55
2021/10/25 05:07:02;;;;;;;;;25.25;22.50;;;;;12.04;78.00;101531.28;5058434;28;45664;-57
2021/10/25 05:09:27;;;;;;;;;29.50;25.50;;;;;12.07;78.11;101530.34;5058400;28;45340;-56
2021/10/25 05:11:53;;;;;;;;;23.00;20.75;;;;;12.07;78.49;101530.34;5060715;28;45395;-56
2021/10/25 05:14:18;;;;;;;;;20.50;20.50;;;;;12.08;78.73;101535.53;5060358;28;45381;-56
2021/10/25 05:16:43;;;;;;;;;22.75;21.00;;;;;12.10;79.26;101531.13;5060272;28;45336;-56
2021/10/25 05:19:09;;;;;;;;;20.00;17.25;;;;;12.12;79.43;101531.09;5059578;28;45528;-56
2021/10/25 05:21:35;;;;;;;;;21.50;17.50;;;;;12.12;79.56;101531.97;5056932;28;45160;-56
2021/10/25 05:24:00;;;;;;;;;20.25;18.00;;;;;12.13;80.14;101527.59;5047115;28;45379;-57
2021/10/25 05:26:26;;;;;;;;;22.50;16.25;;;;;12.13;80.12;101522.41;5060796;28;45330;-56
2021/10/25 05:28:52;;;;;;;;;21.75;17.25;;;;;12.13;80.37;101530.22;5059370;28;45963;-56
2021/10/25 05:31:17;;;;;;;;;21.75;17.50;;;;;12.08;79.81;101524.25;5060585;28;45715;-55
2021/10/25 05:33:43;;;;;;;;;16.75;16.00;;;;;12.01;81.18;101520.88;5047066;28;45345;-55
2021/10/25 05:36:09;;;;;;;;;12.25;10.00;;;;;12.00;80.70;101518.31;5054019;28;45340;-55
2021/10/25 05:38:36;;;;;;;;;19.00;17.00;;;;;11.93;80.96;101514.13;5056201;28;45371;-55
2021/10/25 05:41:02;;;;;;;;;18.75;17.50;;;;;11.85;81.51;101517.78;5061083;28;45295;-56
2021/10/25 05:43:28;;;;;;;;;17.25;15.75;;;;;11.82;81.84;101502.22;5060309;28;45513;-55
2021/10/25 05:45:54;;;;;;;;;19.50;17.25;;;;;11.85;81.19;101503.88;5060131;28;46201;-55
2021/10/25 05:48:20;;;;;;;;;18.00;17.00;;;;;11.83;82.56;101503.06;5059942;28;45362;-55
2021/10/25 05:50:46;;;;;;;;;22.75;22.50;;;;;11.86;82.11;101506.47;5060602;28;45286;-55
2021/10/25 05:53:12;;;;;;;;;24.25;18.00;;;;;11.89;82.30;101508.13;5061239;28;45519;-56
2021/10/25 05:55:39;;;;;;;;;21.00;16.50;;;;;11.90;81.58;101514.22;5060480;28;46048;-55
2021/10/25 05:58:05;;;;;;;;;23.00;18.25;;;;;11.90;81.29;101506.38;5059052;28;45317;-55
2021/10/25 06:00:36;;;;;;;;;22.25;17.25;;;;;11.89;81.52;101513.34;5059937;28;45386;-55
2021/10/25 06:03:01;;;;;;;;;21.75;20.50;;;;;11.87;81.66;101507.31;5057417;28;45426;-55
2021/10/25 06:05:31;;;;;;;;;26.75;25.50;;;;;11.88;81.43;101514.25;5059804;28;46039;-56
2021/10/25 06:07:58;;;;;;;;;30.25;24.25;;;;;11.91;81.34;101508.97;5060255;28;45953;-55
2021/10/25 06:10:30;;;;;;;;;27.50;21.00;;;;;11.88;81.36;101509.88;5060309;28;45260;-56
2021/10/25 06:12:59;;;;;;;;;19.00;17.50;;;;;11.88;81.34;101516.84;5060173;28;45250;-56
2021/10/25 06:15:30;;;;;;;;;25.00;20.50;;;;;11.86;81.38;101501.25;5058845;28;46079;-56
2021/10/25 06:17:55;;;;;;;;;30.25;23.25;;;;;11.84;81.39;101500.44;5059860;28;45391;-56
2021/10/25 06:20:27;;;;;;;;;21.75;19.25;;;;;11.86;81.40;101503.84;5061083;28;45467;-56
2021/10/25 06:22:54;;;;;;;;;24.75;23.75;;;;;11.87;80.95;101502.09;5059039;28;45314;-56
2021/10/25 06:25:22;;;;;;;;;26.75;22.75;;;;;11.87;81.22;101507.31;5047119;28;46981;-56
2021/10/25 06:27:48;;;;;;;;;23.25;20.75;;;;;11.90;81.00;101503.78;5058841;28;45228;-56
2021/10/25 06:30:15;;;;;;;;;23.00;19.25;;;;;11.88;80.98;101512.50;5059574;28;45327;-57
2021/10/25 06:32:41;;;;;;;;;24.75;20.50;;;;;11.86;81.42;101516.88;5059780;28;45235;-56
2021/10/25 06:35:09;;;;;;;;;23.75;22.00;;;;;11.83;81.18;101521.28;5060489;28;46277;-57
2021/10/25 06:37:49;;;;;;;;;19.00;18.25;;;;;11.81;81.12;101526.53;5048657;28;45406;-57
2021/10/25 06:40:17;;;;;;;;;26.50;22.75;;;;;11.79;81.47;101535.25;5059405;28;45433;-57
2021/10/25 06:42:42;;;;;;;;;28.75;25.75;;;;;11.78;81.33;101537.00;5060622;28;45410;-56
2021/10/25 06:45:10;;;;;;;;;30.25;26.00;;;;;11.77;81.20;101537.84;5058818;28;47059;-56
2021/10/25 06:47:35;;;;;;;;;21.50;21.50;;;;;11.77;81.22;101544.81;5059482;28;45943;-56
2021/10/25 06:50:01;;;;;;;;;25.75;22.00;;;;;11.76;81.55;101545.69;5059469;28;45298;-57
2021/10/25 06:52:27;;;;;;;;;32.25;25.50;;;;;11.77;81.85;101550.88;5059347;28;45458;-56
2021/10/25 06:54:52;;;;;;;;;24.00;20.00;;;;;11.79;82.11;101541.31;5059295;28;45999;-56
2021/10/25 06:57:17;;;;;;;;;29.50;23.00;;;;;11.84;81.90;101549.06;5060757;28;45251;-56
2021/10/25 06:59:43;;;;;;;;;27.25;24.75;;;;;11.88;82.07;101545.50;5059157;28;45293;-56
2021/10/25 07:02:08;;;;;;;;;26.25;22.75;;;;;11.93;82.04;101553.22;5058992;28;45457;-57
2021/10/25 07:04:33;;;;;;;;;26.25;18.75;;;;;11.94;81.71;101554.91;5057317;28;46551;-56
2021/10/25 07:07:00;;;;;;;;;21.25;19.75;;;;;11.98;81.52;101548.75;5060684;28;45377;-56
2021/10/25 07:09:25;;;;;;;;;21.50;20.75;;;;;11.97;81.50;101550.50;5059425;28;45281;-56
2021/10/25 07:11:50;;;;;;;;;32.75;25.25;;;;;12.02;81.87;101553.03;5059186;28;45405;-56
2021/10/25 07:14:23;;;;;;;;;21.50;21.50;;;;;12.06;81.60;101550.34;5057705;28;45430;-56
2021/10/25 07:19:41;;;;;;;;;30.00;26.50;;;;;12.13;81.63;101556.25;5058972;28;45355;-56
2021/10/25 08:10:45;;;;;;;;;24.00;20.00;;;;;12.09;85.80;101591.94;5061330;28;45867;-57
2021/10/25 08:13:15;;;;;;;;;27.25;22.50;;;;;12.11;85.56;101594.53;5062226;28;45397;-57
2021/10/25 08:15:44;;;;;;;;;21.25;16.75;;;;;12.04;86.08;101591.19;5061862;28;45473;-57
2021/10/25 08:21:00;;;;;;;;;21.75;20.75;;;;;12.07;86.64;101582.47;5061949;28;45291;-57
2021/10/25 08:23:25;;;;;;;;;24.50;22.00;;;;;12.16;86.50;101590.06;5056690;28;45328;-57
2021/10/25 08:25:51;;;;;;;;;24.25;21.25;;;;;12.24;86.47;101579.50;5058853;28;45352;-56
2021/10/25 08:28:17;;;;;;;;;26.50;21.75;;;;;12.32;85.79;101578.44;5061696;28;45701;-55
2021/10/25 08:30:43;;;;;;;;;25.00;22.50;;;;;12.36;86.49;101574.03;5056537;28;45450;-55
2021/10/25 08:33:25;;;;;;;;;26.50;21.25;;;;;12.43;86.23;101576.47;5061309;28;45461;-55
2021/10/25 08:41:05;;;;;;;;;25.50;22.25;;;;;12.63;85.83;101573.44;5061936;28;45334;-57
2021/10/25 08:43:33;;;;;;;;;28.00;23.25;;;;;12.65;85.80;101573.41;5061532;28;45411;-55
2021/10/25 08:46:02;;;;;;;;;24.50;19.25;;;;;12.64;85.32;101566.47;5061242;28;46513;-56
2021/10/25 08:48:30;;;;;;;;;25.75;19.00;;;;;12.61;85.55;101571.72;5061043;28;45450;-55
2021/10/25 08:50:55;;;;;;;;;25.00;20.00;;;;;12.59;85.69;101570.91;5061418;28;45364;-58
2021/10/25 08:53:21;;;;;;;;;30.25;26.50;;;;;12.63;86.27;101576.03;5061218;28;45326;-55
2021/10/25 08:55:50;;;;;;;;;25.00;21.25;;;;;12.68;86.46;101575.94;5061538;28;45264;-57
2021/10/25 08:58:15;;;;;;;;;23.75;22.00;;;;;12.75;86.04;101573.13;5061039;28;45988;-56
2021/10/25 09:00:45;;;;;;;;;31.25;26.50;;;;;12.83;86.09;101569.50;5061090;28;45360;-57
2021/10/25 09:03:11;;;;;;;;;29.75;20.75;;;;;12.93;86.10;101574.47;5060859;28;45362;-56
2021/10/25 09:05:37;;;;;;;;;25.25;20.50;;;;;13.03;85.64;101568.13;5061260;28;45307;-56
2021/10/25 09:08:05;;;;;;;;;26.00;19.25;;;;;13.12;85.02;101569.66;5059669;28;45995;-55
2021/10/25 09:10:36;;;;;;;;;39.00;33.00;;;;;13.13;85.19;101573.13;5062416;28;45228;-57
2021/10/25 09:13:08;;;;;;;;;23.75;23.25;;;;;13.24;85.49;101569.38;5061020;28;45228;-57
2021/10/25 09:15:38;;;;;;;;;28.25;21.25;;;;;13.27;84.73;101551.03;5055763;28;45447;-56
2021/10/25 09:18:15;;;;;;;;;21.75;20.75;;;;;13.31;85.34;101559.63;5059803;28;46301;-56
2021/10/25 09:20:42;;;;;;;;;24.00;22.00;;;;;13.46;84.91;101555.78;5061040;28;45238;-60
2021/10/25 09:23:09;;;;;;;;;25.25;21.25;;;;;13.61;84.63;101563.19;5058308;28;45501;-61
2021/10/25 09:25:36;;;;;;;;;30.50;24.00;;;;;13.74;84.25;101558.50;5055304;28;45471;-61
2021/10/25 09:28:20;;;;;;;;;34.00;27.75;;;;;13.88;83.96;101564.22;5061109;28;46334;-61
2021/10/25 09:30:48;;;;;;;;;34.50;27.50;;;;;14.06;84.09;101553.22;5060610;28;45948;-61
2021/10/25 09:33:20;;;;;;;;;28.50;26.00;;;;;14.27;83.24;101557.84;5047796;28;45299;-60
2021/10/25 09:35:53;;;;;;;;;26.25;24.75;;;;;14.44;82.54;101559.13;5056566;28;45330;-63
2021/10/25 09:38:31;;;;;;;;;24.50;21.00;;;;;14.47;81.72;101564.25;5053270;28;46294;-65
2021/10/25 09:49:28;;;;;;;;;25.25;22.75;;;;;14.73;80.55;101553.84;5060687;28;45438;-62
2021/10/25 09:51:55;;;;;;;;;24.50;21.75;;;;;14.63;80.39;101549.81;5055411;28;45919;-63
2021/10/25 09:54:25;;;;;;;;;22.75;19.75;;;;;14.65;80.64;101553.22;5052248;28;45425;-61
2021/10/25 09:57:05;;;;;;;;;20.50;20.00;;;;;14.77;79.99;101547.59;5059554;28;45578;-66
2021/10/25 10:02:09;;;;;;;;;25.50;20.50;;;;;14.82;80.18;101556.16;5058511;28;45370;-64
2021/10/25 10:04:35;;;;;;;;;23.50;19.25;;;;;14.85;79.67;101556.06;5058620;28;45312;-59
2021/10/25 10:07:01;;;;;;;;;28.25;24.50;;;;;14.95;79.90;101558.38;5060142;28;45263;-63
2021/10/25 10:09:27;;;;;;;;;26.25;21.75;;;;;15.08;79.49;101557.94;5060003;28;45760;-61
2021/10/25 10:11:55;;;;;;;;;28.75;21.00;;;;;15.18;79.42;101556.72;5060009;28;45350;-59
2021/10/25 10:14:22;;;;;;;;;27.75;25.00;;;;;15.29;78.54;101558.97;5059590;28;45460;-58
2021/10/25 10:16:48;;;;;;;;;30.50;24.75;;;;;15.33;78.41;101551.88;5059571;28;45586;-57
2021/10/25 10:19:23;;;;;;;;;23.00;21.00;;;;;15.22;77.49;101567.97;5059238;28;46089;-65
2021/10/25 10:21:55;;;;;;;;;23.00;20.50;;;;;15.12;78.24;101571.78;5059637;28;45954;-58
2021/10/25 10:24:30;;;;;;;;;32.25;25.00;;;;;15.07;78.25;101574.56;5052351;28;45597;-58
2021/10/25 10:26:58;;;;;;;;;24.75;21.50;;;;;15.02;78.15;101573.00;5052836;28;45410;-57
2021/10/25 10:29:24;;;;;;;;;30.50;24.00;;;;;15.04;78.90;101566.81;5050357;28;47137;-55
2021/10/25 10:32:01;;;;;;;;;27.25;24.50;;;;;15.18;78.68;101568.94;5059426;28;45739;-59
2021/10/25 10:34:38;;;;;;;;;30.00;27.25;;;;;15.44;78.72;101568.94;5059763;28;45326;-59
2021/10/25 10:37:03;;;;;;;;;37.00;26.00;;;;;15.87;78.35;101574.47;5047412;28;45498;-57
2021/10/25 10:39:29;;;;;;;;;24.75;22.25;;;;;16.21;77.18;101588.03;5058310;28;46194;-57
2021/10/25 10:41:57;;;;;;;;;33.25;25.25;;;;;16.27;76.28;101576.47;5059617;28;45358;-58
2021/10/25 10:44:29;;;;;;;;;27.75;25.00;;;;;16.13;75.83;101585.69;5058524;28;45709;-58
2021/10/25 10:46:58;;;;;;;;;32.75;29.25;;;;;15.96;75.99;101584.59;5059006;28;45350;-59
2021/10/25 10:49:33;;;;;;;;;26.25;22.25;;;;;15.81;76.14;101581.63;5059409;28;46038;-71
2021/10/25 10:52:07;;;;;;;;;28.00;27.25;;;;;15.69;76.21;101581.22;5060458;28;45198;-59
2021/10/25 10:54:45;;;;;;;;;31.50;25.00;;;;;15.56;76.99;101578.13;5059828;28;45169;-58
2021/10/25 10:57:25;;;;;;;;;21.25;21.00;;;;;15.50;77.14;101591.44;5059726;28;45218;-58
2021/10/25 10:59:58;;;;;;;;;24.50;20.75;;;;;15.24;78.87;101597.56;5055774;28;46135;-58
2021/10/25 11:02:23;;;;;;;;;17.25;16.50;;;;;14.99;80.72;101588.78;5058033;28;45311;-58
2021/10/25 11:04:50;;;;;;;;;23.50;19.75;;;;;14.86;80.42;101588.31;5057899;28;45263;-58
2021/10/25 11:07:15;;;;;;;;;20.25;17.00;;;;;14.73;81.37;101597.47;5059485;28;45425;-57
2021/10/25 11:09:40;;;;;;;;;14.25;13.00;;;;;14.59;81.70;101587.41;5058964;28;46081;-57
2021/10/25 11:12:08;;;;;;;;;27.75;18.25;;;;;14.58;82.40;101593.53;5059399;28;45291;-56
2021/10/25 11:14:36;;;;;;;;;20.50;16.00;;;;;14.56;82.42;101590.97;5059313;28;45517;-56
2021/10/25 11:17:22;;;;;;;;;19.75;17.75;;;;;14.57;83.59;101592.69;5059254;28;45441;-59
2021/10/25 11:19:49;;;;;;;;;18.25;14.75;;;;;14.61;83.07;101582.97;5056262;28;46074;-56
2021/10/25 11:22:31;;;;;;;;;20.75;18.25;;;;;14.62;84.33;101587.34;5053581;28;45375;-57
2021/10/25 11:24:57;;;;;;;;;26.50;21.50;;;;;14.61;83.16;101577.75;5050795;28;45353;-57
2021/10/25 11:27:31;;;;;;;;;18.75;16.25;;;;;14.66;83.20;101575.00;5059150;28;45402;-56
2021/10/25 11:30:07;;;;;;;;;17.00;15.00;;;;;14.66;82.88;101585.47;5058787;28;47004;-57
2021/10/25 11:32:34;;;;;;;;;13.75;12.75;;;;;14.66;83.24;101586.34;5055189;28;45855;-56
2021/10/25 11:35:00;;;;;;;;;16.50;13.50;;;;;14.60;82.96;101574.28;5058835;28;45423;-56
2021/10/25 11:37:27;;;;;;;;;19.00;18.75;;;;;14.59;83.26;101569.94;5047510;28;45460;-57
2021/10/25 11:40:06;;;;;;;;;12.50;12.25;;;;;14.66;83.47;101562.78;5058977;28;46243;-55
2021/10/25 11:42:36;;;;;;;;;17.75;14.75;;;;;14.78;83.39;101575.47;5058936;28;45809;-56
2021/10/25 11:45:14;;;;;;;;;18.50;14.00;;;;;14.85;83.08;101573.53;5058342;28;45276;-55
2021/10/25 11:47:42;;;;;;;;;20.50;16.50;;;;;14.96;82.87;101570.56;5058881;28;45422;-58
2021/10/25 11:50:14;;;;;;;;;17.50;15.00;;;;;15.05;82.56;101578.97;5058457;28;46990;-57
2021/10/25 11:52:44;;;;;;;;;17.50;15.50;;;;;15.05;82.77;101570.28;5058857;28;45672;-57
2021/10/25 11:55:12;;;;;;;;;15.25;15.25;;;;;15.05;82.74;101565.91;5051762;28;45537;-55
2021/10/25 11:57:45;;;;;;;;;18.00;15.25;;;;;15.18;82.53;101568.94;5058950;28;45368;-54
2021/10/25 12:00:11;;;;;;;;;16.50;14.25;;;;;15.35;82.00;101574.47;5058451;28;46059;-55
2021/10/25 12:02:37;;;;;;;;;18.75;16.50;;;;;15.52;81.61;101563.41;5058664;28;45417;-55
2021/10/25 12:05:04;;;;;;;;;14.75;13.50;;;;;15.65;81.26;101562.13;5057220;28;45368;-57
2021/10/25 12:07:30;;;;;;;;;16.75;14.00;;;;;15.70;80.64;101561.94;5058510;28;45508;-55
2021/10/25 12:10:05;;;;;;;;;20.00;18.00;;;;;15.70;80.24;101567.19;5055471;28;46535;-56
2021/10/25 12:12:31;;;;;;;;;15.75;14.75;;;;;15.68;79.87;101569.88;5048635;28;45261;-58
2021/10/25 12:14:59;;;;;;;;;27.00;22.75;;;;;15.63;80.46;101571.81;5051284;28;45357;-56
2021/10/25 12:17:32;;;;;;;;;21.25;16.00;;;;;15.69;80.38;101565.50;5049864;28;45375;-56
2021/10/25 12:19:57;;;;;;;;;14.25;13.75;;;;;15.68;80.13;101548.91;5048601;28;46971;-56
2021/10/25 12:22:23;;;;;;;;;20.00;16.25;;;;;15.80;79.76;101558.09;5054136;28;45512;-56
2021/10/25 12:24:50;;;;;;;;;26.25;20.00;;;;;15.86;79.66;101568.38;5046487;28;45527;-56
2021/10/25 12:27:22;;;;;;;;;18.25;15.25;;;;;15.92;79.37;101557.66;5049347;28;45840;-56
2021/10/25 12:30:09;;;;;;;;;20.25;15.25;;;;;15.87;79.04;101549.09;5050902;28;46967;-56
2021/10/25 12:32:39;;;;;;;;;22.75;17.75;;;;;15.88;79.27;101537.72;5050933;28;45440;-55
2021/10/25 12:35:05;;;;;;;;;20.00;15.50;;;;;15.99;78.97;101545.16;5050557;28;45612;-55
2021/10/25 12:37:33;;;;;;;;;18.50;15.00;;;;;16.01;78.60;101535.47;5050260;28;45237;-55
2021/10/25 12:40:00;;;;;;;;;14.25;14.25;;;;;15.95;78.57;101523.44;5049976;28;46649;-58
2021/10/25 12:42:38;;;;;;;;;22.50;19.25;;;;;16.08;78.63;101529.94;5046886;28;45445;-58
2021/10/25 12:45:05;;;;;;;;;17.00;16.75;;;;;16.23;78.31;101520.66;5048776;28;45181;-57
2021/10/25 12:47:32;;;;;;;;;21.25;18.75;;;;;16.30;78.04;101526.50;5060263;28;45222;-57
2021/10/25 12:49:59;;;;;;;;;11.75;11.75;;;;;16.26;77.18;101524.94;5060742;28;46311;-58
2021/10/25 12:52:28;;;;;;;;;13.00;11.25;;;;;16.21;77.34;101529.47;5061296;28;45291;-57
2021/10/25 12:54:59;;;;;;;;;18.00;14.25;;;;;16.25;77.50;101528.47;5061411;28;45253;-57
2021/10/25 12:57:29;;;;;;;;;24.00;16.50;;;;;16.40;77.64;101526.06;5059427;28;45539;-58